Aeroporto :
LOGIN :

Iscrizione | Disclaimer

   EN    FR    IT 

 










Sommario :    VFR   VFR Marginale   IFR   IFR Intensivo   IFR Molto Intensivo
Visibilità : 
Base nubi : 
>= 8 km
>= 3000ft
5 / 8 km
1000 / 3000 ft
1500m / 5 km
500 / 1000 ft
800 / 1500m
200 / 500 ft
< 800m
< 200 ft
Simboli :   Temporali  Nebbia  Neve Forte  Precipitazioni Forti  Vento > 20 kt
SIGMETs :   Varie  Temporali  Ghiacco  Turbolenza  Onda orograficha  Ceneri Vulcaniche






- Altitudine del aeroporto : 291 ft
- Codice IATA : ORY


LFPO - Paris-Orly

ULTIMO METAR :
  • 281400Z 21008KT 9999 FEW040 SCT210 BKN250 19/08 Q1020 NOSIG

METARs OBSOLETI :
  • 281330Z 20005KT 140V260 9999 FEW040 SCT210 BKN250 18/09 Q1021 NOSIG
  • 281300Z 19005KT 150V230 9999 FEW036 SCT210 BKN250 18/08 Q1021 NOSIG
  • 281230Z 21005KT 170V250 9999 FEW031 BKN230 18/08 Q1021 NOSIG
  • 281200Z 22005KT 170V280 9999 FEW031 BKN230 18/10 Q1022 NOSIG
  • 281130Z 23007KT 190V260 9999 FEW030 BKN230 17/10 Q1022 NOSIG

TAF TAF LFPO
Valido dal 28 a 12 ore il 29 a 18 ore UTC


281100Z 2812/2918 20005KT CAVOK
TEMPO 2900/2906 22010KT -RA BKN012 BKN020
PROB30
TEMPO 2902/2905 22015G25KT 3500 RA BKN012 SCT020CB
BECMG 2906/2908 28007KT SCT030
PROB40
TEMPO 2911/2915 -SHRA BKN035TCU
ATIS : +33 1 49 75 65 80



MetMap, La meteo Aeronautica in un colpo d'occhio ! - Copyright ORBIFLY Dicembre 2007 - Disclaimer

ORBIFLY MET'MAP TEAM :

Programmazione e sviluppo : Alexandra Zaïnal
Concezione : Baudouin d'Aumeries
Aiuto per la programmazione : Marc-Olivier Méhu
Supporto tecnico e logistico : Manuel Goepfert
Aiuto per la traduzione : Arnaldo La Scala

Contatto : metmap@orbifly.com




FONTI E CREDITI :

   NOAA